createdAt,value
2018-06-10T00:00:50.172Z,97.3
2018-06-10T00:02:50.382Z,97.5
2018-06-10T00:04:50.731Z,97.8
2018-06-10T00:06:50.097Z,98.1
2018-06-10T00:08:50.277Z,98.2
2018-06-10T00:10:50.456Z,98.0
2018-06-10T00:12:50.656Z,97.9
2018-06-10T00:14:50.845Z,97.9
2018-06-10T00:16:50.259Z,97.9
2018-06-10T00:18:50.433Z,97.9
2018-06-10T00:20:50.594Z,98.0
2018-06-10T00:22:50.719Z,97.8
2018-06-10T00:24:50.837Z,97.9
2018-06-10T00:26:50.171Z,97.8
2018-06-10T00:28:50.314Z,97.9
2018-06-10T00:30:50.238Z,97.9
2018-06-10T00:32:50.439Z,98.0
2018-06-10T00:34:50.760Z,97.8
2018-06-10T00:36:50.009Z,97.9
2018-06-10T00:38:50.132Z,97.9
2018-06-10T00:40:50.280Z,97.9
2018-06-10T00:42:50.414Z,97.8
2018-06-10T00:44:50.574Z,97.8
2018-06-10T00:46:50.962Z,98.0
2018-06-10T00:48:50.216Z,97.8
2018-06-10T00:50:50.396Z,97.7
2018-06-10T00:52:50.622Z,98.0
2018-06-10T00:54:50.756Z,98.2
2018-06-10T00:56:50.165Z,98.5
2018-06-10T00:58:50.096Z,98.6
2018-06-10T01:00:50.279Z,98.5
2018-06-10T01:02:50.480Z,98.7
2018-06-10T01:04:50.779Z,98.7
2018-06-10T01:06:50.055Z,99.0
2018-06-10T01:08:50.255Z,99.1
2018-06-10T01:10:50.471Z,99.1
2018-06-10T01:12:50.629Z,99.1
2018-06-10T01:14:50.797Z,99.0
2018-06-10T01:16:50.046Z,99.0
2018-06-10T01:18:50.270Z,99.0
2018-06-10T01:20:50.400Z,99.0
2018-06-10T01:22:50.557Z,99.2
2018-06-10T01:24:50.676Z,99.7
2018-06-10T01:26:50.941Z,99.7
2018-06-10T01:28:50.872Z,99.8
2018-06-10T01:30:50.027Z,99.3
2018-06-10T01:32:50.172Z,99.4
2018-06-10T01:34:50.485Z,99.2
2018-06-10T01:36:50.791Z,99.2
2018-06-10T01:38:50.893Z,99.4
2018-06-10T01:40:50.012Z,99.8
2018-06-10T01:42:50.203Z,99.8
2018-06-10T01:44:50.489Z,99.7
2018-06-10T01:46:50.773Z,99.5
2018-06-10T01:48:50.945Z,99.5
2018-06-10T01:50:50.193Z,99.5
2018-06-10T01:52:50.385Z,99.8
2018-06-10T01:54:50.524Z,99.6
2018-06-10T01:56:50.896Z,99.6
2018-06-10T01:58:50.066Z,99.6
2018-06-10T02:00:50.314Z,99.6
2018-06-10T02:02:50.516Z,99.5
2018-06-10T02:04:50.848Z,99.5
2018-06-10T02:06:50.213Z,99.5
2018-06-10T02:08:50.039Z,99.4
2018-06-10T02:10:50.263Z,99.5
2018-06-10T02:12:50.446Z,99.4
2018-06-10T02:14:50.682Z,99.4
2018-06-10T02:16:50.018Z,99.6
2018-06-10T02:18:50.219Z,99.6
2018-06-10T02:20:50.381Z,99.5
2018-06-10T02:22:50.533Z,99.6
2018-06-10T02:24:50.690Z,99.3
2018-06-10T02:26:49.967Z,99.2
2018-06-10T02:28:50.132Z,99.1
2018-06-10T02:30:50.359Z,99.1
2018-06-10T02:32:50.576Z,98.9
2018-06-10T02:34:50.952Z,99.1
2018-06-10T02:36:50.248Z,98.6
2018-06-10T02:38:50.437Z,98.6
2018-06-10T02:40:50.588Z,98.4
2018-06-10T02:42:50.772Z,98.6
2018-06-10T02:44:50.949Z,98.6
2018-06-10T02:46:50.839Z,98.4
2018-06-10T02:48:50.032Z,98.6
2018-06-10T02:50:50.201Z,98.6
2018-06-10T02:52:50.441Z,98.3
2018-06-10T02:54:50.574Z,98.2
2018-06-10T02:56:50.862Z,97.9
2018-06-10T02:58:50.068Z,98.1
2018-06-10T03:00:50.348Z,98.6
2018-06-10T03:02:50.736Z,98.3
2018-06-10T03:04:50.108Z,98.2
2018-06-10T03:06:50.454Z,97.9
2018-06-10T03:08:50.641Z,97.6
2018-06-10T03:10:50.980Z,97.9
2018-06-10T03:12:50.245Z,97.5
2018-06-10T03:14:50.413Z,97.7
2018-06-10T03:16:50.667Z,97.5
2018-06-10T03:18:50.862Z,97.4
2018-06-10T03:20:50.012Z,97.6
2018-06-10T03:22:50.220Z,97.7
2018-06-10T03:24:50.384Z,97.3
2018-06-10T03:26:50.751Z,97.2
2018-06-10T03:28:50.910Z,97.6
2018-06-10T03:30:50.076Z,97.5
2018-06-10T03:32:50.275Z,97.6
2018-06-10T03:34:50.680Z,97.6
2018-06-10T03:36:50.155Z,96.8
2018-06-10T03:38:50.366Z,96.8
2018-06-10T03:40:50.561Z,96.5
2018-06-10T03:42:50.718Z,96.6
2018-06-10T03:44:50.905Z,96.9
2018-06-10T03:46:50.156Z,96.4
2018-06-10T03:48:50.469Z,96.5
2018-06-10T03:50:50.582Z,96.5
2018-06-10T03:52:50.747Z,96.7
2018-06-10T03:54:50.927Z,96.6
2018-06-10T03:56:50.148Z,95.8
2018-06-10T03:58:50.327Z,95.7
2018-06-10T04:00:50.523Z,95.5
2018-06-10T04:02:50.699Z,95.4
2018-06-10T04:04:50.089Z,95.4
2018-06-10T04:06:50.366Z,95.0
2018-06-10T04:08:50.568Z,94.8
2018-06-10T04:10:50.824Z,94.3
2018-06-10T04:12:50.143Z,93.6
2018-06-10T04:14:50.292Z,93.6
2018-06-10T04:16:50.506Z,94.0
2018-06-10T04:18:50.668Z,93.5
2018-06-10T04:20:50.856Z,93.4
2018-06-10T04:22:50.062Z,93.5
2018-06-10T04:24:50.154Z,93.5
2018-06-10T04:26:49.989Z,93.1
2018-06-10T04:28:50.107Z,92.7
2018-06-10T04:30:50.205Z,92.6
2018-06-10T04:32:50.510Z,92.5
2018-06-10T04:34:50.813Z,91.6
2018-06-10T04:36:50.080Z,91.9
2018-06-10T04:38:50.270Z,91.5
2018-06-10T04:40:50.427Z,91.1
2018-06-10T04:42:50.619Z,90.6
2018-06-10T04:44:50.787Z,90.6
2018-06-10T04:46:50.259Z,90.4
2018-06-10T04:48:50.491Z,89.5
2018-06-10T04:50:50.655Z,89.8
2018-06-10T04:52:50.801Z,88.5
2018-06-10T04:54:50.007Z,88.1
2018-06-10T04:56:50.283Z,88.9
2018-06-10T04:58:50.432Z,86.9
2018-06-10T05:00:50.592Z,87.2
2018-06-10T05:02:50.707Z,86.9
2018-06-10T05:04:50.078Z,85.2
2018-06-10T05:06:50.391Z,85.2
2018-06-10T05:08:50.621Z,84.4
2018-06-10T05:10:50.755Z,84.4
2018-06-10T05:12:50.009Z,85.0
2018-06-10T05:14:50.217Z,84.5
2018-06-10T05:16:50.489Z,84.3
2018-06-10T05:18:50.649Z,84.4
2018-06-10T05:20:50.844Z,84.8
2018-06-10T05:22:49.996Z,84.0
2018-06-10T05:24:50.139Z,83.5
2018-06-10T05:26:50.428Z,83.5
2018-06-10T05:28:50.569Z,83.0
2018-06-10T05:30:50.747Z,82.6
2018-06-10T05:32:50.898Z,82.8
2018-06-10T05:34:50.415Z,83.3
2018-06-10T05:36:50.337Z,83.0
2018-06-10T05:38:50.521Z,83.8
2018-06-10T05:40:50.715Z,83.6
2018-06-10T05:42:50.896Z,83.6
2018-06-10T05:44:50.028Z,83.6
2018-06-10T05:46:50.372Z,82.8
2018-06-10T05:48:50.569Z,82.8
2018-06-10T05:50:50.700Z,82.0
2018-06-10T05:52:50.913Z,81.9
2018-06-10T05:54:50.038Z,81.4
2018-06-10T05:56:50.270Z,80.9
2018-06-10T05:58:50.451Z,80.6
2018-06-10T06:00:50.624Z,79.9
2018-06-10T06:02:50.870Z,79.0
2018-06-10T06:04:50.173Z,78.7
2018-06-10T06:06:50.519Z,78.2
2018-06-10T06:08:50.676Z,77.6
2018-06-10T06:10:50.874Z,78.0
2018-06-10T06:12:50.018Z,77.8
2018-06-10T06:14:50.171Z,77.6
2018-06-10T06:16:50.515Z,78.0
2018-06-10T06:18:50.752Z,77.0
2018-06-10T06:20:50.955Z,78.0
2018-06-10T06:22:50.076Z,77.2
2018-06-10T06:24:50.280Z,78.5
2018-06-10T06:26:50.485Z,77.2
2018-06-10T06:28:50.703Z,76.8
2018-06-10T06:30:50.832Z,76.9
2018-06-10T06:32:50.033Z,76.0
2018-06-10T06:34:50.697Z,75.7
2018-06-10T06:36:50.945Z,75.5
2018-06-10T06:38:50.179Z,75.5
2018-06-10T06:40:50.328Z,75.6
2018-06-10T06:42:50.496Z,73.5
2018-06-10T06:44:50.659Z,73.9
2018-06-10T06:46:50.921Z,74.4
2018-06-10T06:48:50.084Z,71.8
2018-06-10T06:50:50.316Z,72.3
2018-06-10T06:52:50.589Z,72.3
2018-06-10T06:54:50.761Z,71.9
2018-06-10T06:56:50.052Z,71.0
2018-06-10T06:58:50.218Z,69.6
2018-06-10T07:00:50.416Z,69.5
2018-06-10T07:02:50.600Z,68.4
2018-06-10T07:04:49.990Z,68.0
2018-06-10T07:06:50.276Z,69.0
2018-06-10T07:08:50.420Z,69.0
2018-06-10T07:10:50.570Z,68.1
2018-06-10T07:12:50.729Z,69.2
2018-06-10T07:14:50.855Z,69.7
2018-06-10T07:16:50.203Z,70.3
2018-06-10T07:18:50.426Z,70.2
2018-06-10T07:20:50.700Z,70.5
2018-06-10T07:22:50.888Z,70.5
2018-06-10T07:24:50.038Z,67.9
2018-06-10T07:26:50.249Z,69.5
2018-06-10T07:28:50.427Z,68.3
2018-06-10T07:30:50.648Z,67.0
2018-06-10T07:32:50.843Z,66.2
2018-06-10T07:34:50.279Z,65.7
2018-06-10T07:36:50.627Z,65.5
2018-06-10T07:38:50.805Z,66.5
2018-06-10T07:40:50.086Z,66.4
2018-06-10T07:42:50.304Z,65.3
2018-06-10T07:44:50.496Z,64.9
2018-06-10T07:46:50.796Z,64.2
2018-06-10T07:48:50.010Z,64.1
2018-06-10T07:50:50.229Z,62.3
2018-06-10T07:52:50.479Z,63.1
2018-06-10T07:54:50.662Z,63.1
2018-06-10T07:56:50.128Z,63.1
2018-06-10T07:58:50.243Z,62.0
2018-06-10T08:00:50.426Z,60.6
2018-06-10T08:02:50.609Z,59.3
2018-06-10T08:04:50.151Z,61.5
2018-06-10T08:06:50.497Z,60.9
2018-06-10T08:08:50.617Z,62.2
2018-06-10T08:10:50.762Z,62.2
2018-06-10T08:12:50.936Z,62.4
2018-06-10T08:14:50.107Z,61.7
2018-06-10T08:16:50.519Z,60.1
2018-06-10T08:18:50.730Z,59.9
2018-06-10T08:20:50.901Z,60.3
2018-06-10T08:22:50.092Z,60.9
2018-06-10T08:24:50.245Z,61.9
2018-06-10T08:26:50.690Z,62.1
2018-06-10T08:28:50.834Z,59.7
2018-06-10T08:30:50.038Z,58.8
2018-06-10T08:32:50.207Z,58.7
2018-06-10T08:34:50.508Z,59.8
2018-06-10T08:36:50.780Z,59.4
2018-06-10T08:38:50.018Z,60.6
2018-06-10T08:40:50.218Z,61.0
2018-06-10T08:42:50.494Z,61.3
2018-06-10T08:44:50.656Z,60.8
2018-06-10T08:46:50.897Z,59.0
2018-06-10T08:48:50.023Z,59.0
2018-06-10T08:50:50.249Z,58.3
2018-06-10T08:52:50.437Z,59.8
2018-06-10T08:54:50.574Z,60.7
2018-06-10T08:56:51.147Z,58.6
2018-06-10T08:58:50.362Z,59.4
2018-06-10T09:00:50.549Z,59.9
2018-06-10T09:02:51.088Z,59.1
2018-06-10T09:04:50.440Z,60.2
2018-06-10T09:06:50.624Z,60.2
2018-06-10T09:08:51.284Z,59.4
2018-06-10T09:10:50.534Z,59.5
2018-06-10T09:12:50.744Z,60
2018-06-10T09:14:51.401Z,59
2018-06-10T09:16:50.737Z,57.0
2018-06-10T09:18:50.944Z,59
2018-06-10T09:20:50.074Z,59
2018-06-10T09:22:50.289Z,56.7
2018-06-10T09:24:50.482Z,57.1
2018-06-10T09:26:49.970Z,59
2018-06-10T09:28:50.575Z,59
2018-06-10T09:30:50.748Z,59
2018-06-10T09:32:50.882Z,59
2018-06-10T09:34:50.211Z,58
2018-06-10T09:36:50.522Z,58
2018-06-10T09:38:50.709Z,59
2018-06-10T09:40:50.884Z,58
2018-06-10T09:42:50.166Z,58
2018-06-10T09:44:50.289Z,57
2018-06-10T09:46:50.586Z,56
2018-06-10T09:48:50.744Z,56
2018-06-10T09:50:50.941Z,56
2018-06-10T09:52:50.058Z,55
2018-06-10T09:54:50.224Z,55
2018-06-10T09:56:50.477Z,54
2018-06-10T09:58:50.642Z,54
2018-06-10T10:00:50.829Z,56
2018-06-10T10:02:50.555Z,56
2018-06-10T10:04:50.995Z,55
2018-06-10T10:06:50.300Z,55
2018-06-10T10:08:51.000Z,55
2018-06-10T10:10:50.193Z,53
2018-06-10T10:12:50.412Z,54
2018-06-10T10:14:50.653Z,54
2018-06-10T10:16:50.036Z,53
2018-06-10T10:18:50.224Z,53
2018-06-10T10:20:50.355Z,53
2018-06-10T10:22:50.582Z,54
2018-06-10T10:24:50.497Z,54
2018-06-10T10:26:50.603Z,54
2018-06-10T10:28:50.736Z,54
2018-06-10T10:30:50.852Z,52
2018-06-10T10:32:50.013Z,52
2018-06-10T10:34:50.326Z,51
2018-06-10T10:36:50.577Z,51
2018-06-10T10:38:50.775Z,51
2018-06-10T10:40:50.978Z,52
2018-06-10T10:42:50.251Z,53
2018-06-10T10:44:50.461Z,53
2018-06-10T10:46:50.749Z,50
2018-06-10T10:48:51.311Z,49
2018-06-10T10:50:50.533Z,49
2018-06-10T10:52:50.630Z,49
2018-06-10T10:54:50.777Z,49
2018-06-10T10:56:50.033Z,50
2018-06-10T10:58:50.194Z,50
2018-06-10T11:00:50.311Z,50
2018-06-10T11:02:50.457Z,49
2018-06-10T11:04:50.786Z,49
2018-06-10T11:06:50.029Z,49
2018-06-10T11:08:50.200Z,49
2018-06-10T11:10:50.377Z,49
2018-06-10T11:12:50.637Z,49
2018-06-10T11:14:51.059Z,48
2018-06-10T11:16:50.358Z,48
2018-06-10T11:18:50.572Z,48
2018-06-10T11:20:50.732Z,48
2018-06-10T11:22:50.857Z,48
2018-06-10T11:24:50.000Z,46
2018-06-10T11:26:50.256Z,45
2018-06-10T11:28:50.342Z,46
2018-06-10T11:30:50.534Z,45
2018-06-10T11:32:50.685Z,45
2018-06-10T11:34:50.121Z,46
2018-06-10T11:36:50.325Z,46
2018-06-10T11:38:50.419Z,46
2018-06-10T11:40:50.537Z,48
2018-06-10T11:42:50.696Z,48
2018-06-10T11:44:50.842Z,48
2018-06-10T11:46:50.174Z,48
2018-06-10T11:48:50.311Z,46
2018-06-10T11:50:50.450Z,46
2018-06-10T11:52:50.677Z,47
2018-06-10T11:54:50.828Z,46
2018-06-10T11:56:50.111Z,48
2018-06-10T11:58:50.407Z,48
2018-06-10T12:00:50.560Z,46
2018-06-10T12:02:50.641Z,46
2018-06-10T12:04:50.003Z,46
2018-06-10T12:06:50.236Z,46
2018-06-10T12:08:50.364Z,46
2018-06-10T12:10:51.017Z,46
2018-06-10T12:12:50.190Z,47
2018-06-10T12:14:50.338Z,43.3
2018-06-10T12:16:50.629Z,48
2018-06-10T12:18:50.851Z,47
2018-06-10T12:20:50.007Z,47
2018-06-10T12:22:51.296Z,46
2018-06-10T12:24:50.469Z,48
2018-06-10T12:26:50.773Z,45
2018-06-10T12:28:50.932Z,45
2018-06-10T12:30:50.186Z,46
2018-06-10T12:32:50.333Z,46
2018-06-10T12:34:50.636Z,46
2018-06-10T12:36:49.990Z,46
2018-06-10T12:38:50.129Z,46
2018-06-10T12:40:50.286Z,46
2018-06-10T12:42:50.449Z,45
2018-06-10T12:44:50.628Z,45
2018-06-10T12:46:50.967Z,46
2018-06-10T12:48:50.172Z,46
2018-06-10T12:50:50.422Z,43.5
2018-06-10T12:52:50.631Z,43.7
2018-06-10T12:54:50.706Z,44.6
2018-06-10T12:56:51.388Z,45.0
2018-06-10T12:58:50.553Z,42.9
2018-06-10T13:00:50.736Z,42.5
2018-06-10T13:02:50.907Z,47
2018-06-10T13:04:50.415Z,45
2018-06-10T13:06:50.750Z,45
2018-06-10T13:08:50.907Z,44
2018-06-10T13:10:50.147Z,44
2018-06-10T13:12:50.310Z,45
2018-06-10T13:14:50.487Z,45
2018-06-10T13:16:50.782Z,45
2018-06-10T13:18:49.980Z,41.5
2018-06-10T13:20:50.126Z,45
2018-06-10T13:22:50.261Z,45
2018-06-10T13:24:50.601Z,45
2018-06-10T13:26:50.892Z,44
2018-06-10T13:28:50.019Z,44
2018-06-10T13:30:50.138Z,44
2018-06-10T13:32:50.302Z,43
2018-06-10T13:34:50.656Z,43
2018-06-10T13:36:50.030Z,44
2018-06-10T13:38:50.241Z,43
2018-06-10T13:40:50.365Z,43
2018-06-10T13:42:50.525Z,43
2018-06-10T13:44:50.698Z,43
2018-06-10T13:46:50.055Z,44
2018-06-10T13:48:50.169Z,44
2018-06-10T13:50:50.373Z,44
2018-06-10T13:52:50.565Z,44
2018-06-10T13:54:50.803Z,42
2018-06-10T13:56:50.076Z,43
2018-06-10T13:58:50.217Z,43
2018-06-10T14:00:50.434Z,43
2018-06-10T14:02:50.622Z,43
2018-06-10T14:04:50.040Z,43
2018-06-10T14:06:51.207Z,42
2018-06-10T14:08:50.454Z,39.6
2018-06-10T14:10:50.656Z,40.0
2018-06-10T14:12:50.015Z,44.4
2018-06-10T14:14:50.233Z,46.0
2018-06-10T14:16:50.678Z,47.7
2018-06-10T14:18:50.861Z,48.0
2018-06-10T14:20:50.032Z,47.8
2018-06-10T14:22:50.217Z,45.8
2018-06-10T14:24:50.359Z,47
2018-06-10T14:26:50.639Z,46
2018-06-10T14:28:50.776Z,46
2018-06-10T14:30:49.971Z,46
2018-06-10T14:32:50.136Z,45
2018-06-10T14:34:50.577Z,47
2018-06-10T14:36:50.951Z,47
2018-06-10T14:38:50.089Z,46
2018-06-10T14:40:50.204Z,46
2018-06-10T14:42:50.418Z,46
2018-06-10T14:44:50.626Z,47
2018-06-10T14:46:50.945Z,45
2018-06-10T14:48:50.108Z,44
2018-06-10T14:50:50.338Z,44
2018-06-10T14:52:50.498Z,43
2018-06-10T14:54:50.680Z,41
2018-06-10T14:56:49.971Z,41
2018-06-10T14:58:50.093Z,41
2018-06-10T15:00:50.213Z,41
2018-06-10T15:02:50.466Z,41
2018-06-10T15:04:50.817Z,41
2018-06-10T15:06:50.166Z,41
2018-06-10T15:08:50.352Z,41
2018-06-10T15:10:50.526Z,41
2018-06-10T15:12:50.717Z,42
2018-06-10T15:14:50.870Z,42
2018-06-10T15:16:50.148Z,42
2018-06-10T15:18:50.253Z,43
2018-06-10T15:20:51.082Z,43
2018-06-10T15:22:50.339Z,43
2018-06-10T15:24:50.478Z,43
2018-06-10T15:26:50.718Z,43
2018-06-10T15:28:50.878Z,44
2018-06-10T15:30:50.070Z,44
2018-06-10T15:32:50.321Z,43
2018-06-10T15:34:50.691Z,43
2018-06-10T15:36:50.017Z,44
2018-06-10T15:38:50.228Z,44
2018-06-10T15:40:50.346Z,44
2018-06-10T15:42:50.425Z,44
2018-06-10T15:44:50.650Z,44
2018-06-10T15:46:50.988Z,43
2018-06-10T15:48:50.098Z,43
2018-06-10T15:50:50.257Z,42
2018-06-10T15:52:50.359Z,41
2018-06-10T15:54:50.487Z,42
2018-06-10T15:56:50.800Z,42
2018-06-10T15:58:50.011Z,42
2018-06-10T16:00:50.281Z,41
2018-06-10T16:02:50.467Z,42
2018-06-10T16:04:50.846Z,41
2018-06-10T16:06:50.165Z,41
2018-06-10T16:08:50.341Z,42
2018-06-10T16:10:50.559Z,41
2018-06-10T16:12:50.689Z,41
2018-06-10T16:14:50.818Z,41
2018-06-10T16:16:50.834Z,41
2018-06-10T16:18:50.047Z,41
2018-06-10T16:20:50.133Z,40
2018-06-10T16:22:50.285Z,41
2018-06-10T16:24:50.468Z,41
2018-06-10T16:26:50.742Z,40
2018-06-10T16:28:50.860Z,41
2018-06-10T16:30:50.036Z,40
2018-06-10T16:32:50.175Z,41
2018-06-10T16:34:50.522Z,41
2018-06-10T16:36:50.757Z,41
2018-06-10T16:38:50.903Z,41
2018-06-10T16:40:50.105Z,41
2018-06-10T16:42:50.293Z,41
2018-06-10T16:44:50.476Z,41
2018-06-10T16:46:50.806Z,42
2018-06-10T16:48:51.007Z,42
2018-06-10T16:50:50.236Z,42
2018-06-10T16:52:50.374Z,42
2018-06-10T16:54:50.507Z,43
2018-06-10T16:56:50.722Z,43
2018-06-10T16:58:50.894Z,43
2018-06-10T17:00:50.058Z,43
2018-06-10T17:02:50.293Z,43
2018-06-10T17:04:50.698Z,43
2018-06-10T17:06:50.977Z,43
2018-06-10T17:08:50.181Z,43
2018-06-10T17:10:50.392Z,43
2018-06-10T17:12:50.513Z,43
2018-06-10T17:14:50.623Z,43
2018-06-10T17:16:49.994Z,39.8
2018-06-10T17:18:50.109Z,42.1
2018-06-10T17:20:50.255Z,42.7
2018-06-10T17:22:50.455Z,42.3
2018-06-10T17:24:50.587Z,42.9
2018-06-10T17:26:50.950Z,43.2
2018-06-10T17:28:50.063Z,43.5
2018-06-10T17:30:50.216Z,43.9
2018-06-10T17:32:50.401Z,44.0
2018-06-10T17:34:50.727Z,44.1
2018-06-10T17:36:50.120Z,44.5
2018-06-10T17:38:50.253Z,44.5
2018-06-10T17:40:50.422Z,44.4
2018-06-10T17:42:50.573Z,45.0
2018-06-10T17:44:50.834Z,45.2
2018-06-10T17:46:50.324Z,46.0
2018-06-10T17:48:50.419Z,46.1
2018-06-10T17:50:50.577Z,46.2
2018-06-10T17:52:50.805Z,46.3
2018-06-10T17:54:50.056Z,46.2
2018-06-10T17:56:50.349Z,46.0
2018-06-10T17:58:50.473Z,46.5
2018-06-10T18:00:50.570Z,46.6
2018-06-10T18:02:50.815Z,46.6
2018-06-10T18:04:50.064Z,46.8
2018-06-10T18:06:51.098Z,47.2
2018-06-10T18:08:50.271Z,47.4
2018-06-10T18:10:50.404Z,47.3
2018-06-10T18:12:50.581Z,47.4
2018-06-10T18:14:50.719Z,47.6
2018-06-10T18:16:50.035Z,47.5
2018-06-10T18:18:50.184Z,47.8
2018-06-10T18:20:50.458Z,47.7
2018-06-10T18:22:50.651Z,48.0
2018-06-10T18:24:50.782Z,48.2
2018-06-10T18:26:50.029Z,48.8
2018-06-10T18:28:50.172Z,49.0
2018-06-10T18:30:50.264Z,49.0
2018-06-10T18:32:50.375Z,49.6
2018-06-10T18:34:50.862Z,49.8
2018-06-10T18:36:50.098Z,50.4
2018-06-10T18:38:50.279Z,50.5
2018-06-10T18:40:50.589Z,50.8
2018-06-10T18:42:50.803Z,51.1
2018-06-10T18:44:50.135Z,51.4
2018-06-10T18:46:50.424Z,51.6
2018-06-10T18:48:50.625Z,51.9
2018-06-10T18:50:50.804Z,52.4
2018-06-10T18:52:50.955Z,52.7
2018-06-10T18:54:50.133Z,53.1
2018-06-10T18:56:50.421Z,53.3
2018-06-10T18:58:50.606Z,53.7
2018-06-10T19:00:50.775Z,54.0
2018-06-10T19:02:50.891Z,54.4
2018-06-10T19:04:50.410Z,54.5
2018-06-10T19:06:50.724Z,54.6
2018-06-10T19:08:50.857Z,54.9
2018-06-10T19:10:50.106Z,55.5
2018-06-10T19:12:50.358Z,55.7
2018-06-10T19:14:50.564Z,56.2
2018-06-10T19:16:50.808Z,56.2
2018-06-10T19:18:49.972Z,57.4
2018-06-10T19:20:50.116Z,57.7
2018-06-10T19:22:50.308Z,57.6
2018-06-10T19:24:50.500Z,57.8
2018-06-10T19:26:50.852Z,58.0
2018-06-10T19:28:50.022Z,58.1
2018-06-10T19:30:50.149Z,58.1
2018-06-10T19:32:51.090Z,58.3
2018-06-10T19:34:50.376Z,58.1
2018-06-10T19:36:50.677Z,59.1
2018-06-10T19:38:50.987Z,59.4
2018-06-10T19:40:50.197Z,60.8
2018-06-10T19:42:50.381Z,61.1
2018-06-10T19:44:50.452Z,62.2
2018-06-10T19:46:50.761Z,62.1
2018-06-10T19:48:50.939Z,62.9
2018-06-10T19:50:50.096Z,63.2
2018-06-10T19:52:50.208Z,63.5
2018-06-10T19:54:50.384Z,63.9
2018-06-10T19:56:50.644Z,64.8
2018-06-10T19:58:50.791Z,65.3
2018-06-10T20:00:50.954Z,65.6
2018-06-10T20:02:50.189Z,65.9
2018-06-10T20:04:50.718Z,66.1
2018-06-10T20:06:49.989Z,66.7
2018-06-10T20:08:50.156Z,66.7
2018-06-10T20:10:50.271Z,67.8
2018-06-10T20:12:50.825Z,67.7
2018-06-10T20:14:49.988Z,67.9
2018-06-10T20:16:50.274Z,68.1
2018-06-10T20:18:50.411Z,68.3
2018-06-10T20:20:50.554Z,69.0
2018-06-10T20:22:50.733Z,68.8
2018-06-10T20:24:50.880Z,69.4
2018-06-10T20:26:50.241Z,69.4
2018-06-10T20:28:50.454Z,69.4
2018-06-10T20:30:50.605Z,70.6
2018-06-10T20:32:50.772Z,70.8
2018-06-10T20:34:50.150Z,71.5
2018-06-10T20:36:50.351Z,71.8
2018-06-10T20:38:50.269Z,71.6
2018-06-10T20:40:50.286Z,71.9
2018-06-10T20:42:50.316Z,72.1
2018-06-10T20:44:50.264Z,72.3
2018-06-10T20:46:50.414Z,72.8
2018-06-10T20:48:50.631Z,72.6
2018-06-10T20:50:50.747Z,73.3
2018-06-10T20:52:50.875Z,73.1
2018-06-10T20:54:49.985Z,73.5
2018-06-10T20:56:50.186Z,73.3
2018-06-10T20:58:50.375Z,73.4
2018-06-10T21:00:50.532Z,74.8
2018-06-10T21:02:50.732Z,74.7
2018-06-10T21:04:50.086Z,73.7
2018-06-10T21:06:50.385Z,73.6
2018-06-10T21:08:50.517Z,73.7
2018-06-10T21:10:50.667Z,74.4
2018-06-10T21:12:50.773Z,74.9
2018-06-10T21:14:49.993Z,75.9
2018-06-10T21:16:50.227Z,75.0
2018-06-10T21:18:50.403Z,74.9
2018-06-10T21:20:50.560Z,75.3
2018-06-10T21:22:50.723Z,74.5
2018-06-10T21:24:50.840Z,74.8
2018-06-10T21:26:50.111Z,74.2
2018-06-10T21:28:50.275Z,74.2
2018-06-10T21:30:50.419Z,74.9
2018-06-10T21:32:50.630Z,75.3
2018-06-10T21:34:50.924Z,75.3
2018-06-10T21:36:50.221Z,75.8
2018-06-10T21:38:50.362Z,76.3
2018-06-10T21:40:50.509Z,76.8
2018-06-10T21:42:50.635Z,76.8
2018-06-10T21:44:50.865Z,76.3
2018-06-10T21:46:50.135Z,76.3
2018-06-10T21:48:50.279Z,76.2
2018-06-10T21:50:50.475Z,76.8
2018-06-10T21:52:50.638Z,76.9
2018-06-10T21:54:50.781Z,76.8
2018-06-10T21:56:50.058Z,76.9
2018-06-10T21:58:50.262Z,76.5
2018-06-10T22:00:50.498Z,77.4
2018-06-10T22:02:50.634Z,77.4
2018-06-10T22:04:50.937Z,77.3
2018-06-10T22:06:50.378Z,77.7
2018-06-10T22:08:50.559Z,77.9
2018-06-10T22:10:50.672Z,78.4
2018-06-10T22:12:50.831Z,78.7
2018-06-10T22:14:49.973Z,78.7
2018-06-10T22:16:50.382Z,79.3
2018-06-10T22:18:50.493Z,79.5
2018-06-10T22:20:50.652Z,79.8
2018-06-10T22:22:50.800Z,80.1
2018-06-10T22:24:50.452Z,80.1
2018-06-10T22:26:50.696Z,80.4
2018-06-10T22:28:50.829Z,80.6
2018-06-10T22:30:49.995Z,81.7
2018-06-10T22:32:50.200Z,81.4
2018-06-10T22:34:50.562Z,81.2
2018-06-10T22:36:50.330Z,81.4
2018-06-10T22:38:50.606Z,81.6
2018-06-10T22:40:50.827Z,81.4
2018-06-10T22:42:50.008Z,82.0
2018-06-10T22:44:50.195Z,82.9
2018-06-10T22:46:50.500Z,82.7
2018-06-10T22:48:50.707Z,82.5
2018-06-10T22:50:50.857Z,82.1
2018-06-10T22:52:50.007Z,82.1
2018-06-10T22:54:50.232Z,81.8
2018-06-10T22:56:50.546Z,81.7
2018-06-10T22:58:50.708Z,81.4
2018-06-10T23:00:50.912Z,81.4
2018-06-10T23:02:50.046Z,81.6
2018-06-10T23:04:50.431Z,81.7
2018-06-10T23:06:50.765Z,82.2
2018-06-10T23:08:50.927Z,81.6
2018-06-10T23:10:50.050Z,81.6
2018-06-10T23:12:50.297Z,81.5
2018-06-10T23:14:50.517Z,81.6
2018-06-10T23:16:50.749Z,81.7
2018-06-10T23:18:51.024Z,81.7
2018-06-10T23:20:50.220Z,81.4
2018-06-10T23:22:50.388Z,81.2
2018-06-10T23:24:50.571Z,81.1
2018-06-10T23:26:50.820Z,81.2
2018-06-10T23:28:49.985Z,81.1
2018-06-10T23:30:50.166Z,81.1
2018-06-10T23:32:50.373Z,81.6
2018-06-10T23:34:50.834Z,82.0
2018-06-10T23:36:50.111Z,82.4
2018-06-10T23:38:50.304Z,81.7
2018-06-10T23:40:50.470Z,82.0
2018-06-10T23:42:50.594Z,81.9
2018-06-10T23:44:50.772Z,82.7
2018-06-10T23:46:50.045Z,83.1
2018-06-10T23:48:50.172Z,82.9
2018-06-10T23:50:50.339Z,83.1
2018-06-10T23:52:50.484Z,83.5
2018-06-10T23:54:50.670Z,84.1
2018-06-10T23:56:50.943Z,84.5
2018-06-10T23:58:50.097Z,84.6
